Gore Springs, Mississippi
Current Conditions -  °F | °C
As of 2:53 PM on Friday 24 Oct 2014 (Local Time) from KGWO Reporting Station
Clear Clear  
Wind Chill: 73°   Ceiling: Unl
Heat Index: 73°   Visibility: 10mi
Dew Point: 44°   Wind: 8mph
Humidity: 35%   Direction: 340°NNW
Pressure: 30.1"   Gusts: NA
Location:  33.75°N, 89.62°W
Report Text: KGWO 241953Z AUTO 34007KT 10SM CLR 23/07 A3010 RMK AO2 SLP190 T02280067 TSNO
Loading
Personal Weather Stations






























Interactive Weather Map
Tropical Storm Tracking
New forecast layout! Learn more

10-Day Weather Forecast

Advertisements
Track Severe Weather on mobile